• Join FlightAware (Why Join?)
  • Login
  • US Flag 
09:36PM EDT


 

Airport Tracker/Info


-or-


 

Live Flight TrackerFlight Track Log ✈ ELJ309 ✈ 04-May-2013 ✈ KTLH - KSRQ

Flight Track Log - Related Links

Times and Time Zones

All times are in EDT time to prevent confusion due to time zone crossing. See the ELJ309 flight status page for this flight to view local times or setup timezone preferences in your user account.

Time Position Orientation Groundspeed Altitude Reporting Facility
EDT Latitude Longitude Course Direction KTS MPH feet Rate Location/Type
10:52AM 30.2722 -84.2058 148° Southeast 270 311 8,300  Level Jacksonville Center
10:53AM 30.2058 -84.1642 152° Southeast 280 322 10,000 1,740 Climbing Jacksonville Center
10:54AM 30.1231 -84.1053 148° Southeast 306 352 11,800 1,980 Climbing Jacksonville Center
10:55AM 30.0378 -84.0492 150° Southeast 344 396 14,000 2,340 Climbing Jacksonville Center
10:56AM 29.9683 -84.0870 147° Southeast  Level Estimated
10:56AM 29.9506 -83.9928 151° Southeast 351 404 16,500  Level Jacksonville Center
10:57AM 29.9194 -84.0127 127° Southeast  Level FlightAware Approximate
10:57AM 29.8636 -83.9344 150° Southeast 356 410 17,300  Level Jacksonville Center
10:58AM 29.8474 -83.9700 148° Southeast  Level Estimated
10:58AM 29.7722 -83.8736 150° Southeast 368 423 19,400  Level Jacksonville Center
10:59AM 29.6828 -83.8131 150° Southeast 373 429 21,800 1,800 Climbing Jacksonville Center
11:00AM 29.5914 -83.7572 152° Southeast 373 429 23,000 600 Climbing Jacksonville Center
11:01AM 29.4936 -83.6919 150° Southeast 380 437 23,000  Level Jacksonville Center
11:02AM 29.3917 -83.6242 150° Southeast 405 466 23,000  Level Jacksonville Center
11:04AM 29.3051 -83.5673 154° Southeast  Level FlightAware Approximate
11:04AM 29.1900 -83.5064 154° Southeast 427 491 23,000  Level Jacksonville Center
11:05AM 29.0836 -83.4508 155° Southeast 427 491 22,400 -900 Descending Jacksonville Center
11:06AM 28.9753 -83.3933 155° Southeast 422 486 21,300 -1,020 Descending Jacksonville Center
11:07AM 28.8711 -83.3358 154° Southeast 422 486 20,400 -960 Descending Jacksonville Center
11:08AM 28.7650 -83.2811 156° South 422 486 19,400 -1,020 Descending Jacksonville Center
11:09AM 28.6608 -83.2239 154° Southeast 417 480 18,400 -1,080 Descending Jacksonville Center
11:11AM 28.4500 -83.1167 156° South 398 458 16,300 -1,260 Descending Tampa TRACON
11:12AM 28.3500 -83.0667 156° South 395 455 14,700 -1,560 Descending Tampa TRACON
11:13AM 28.2500 -83.0000 150° Southeast 388 447 13,200 -1,560 Descending Tampa TRACON
11:14AM 28.1500 -82.9500 156° South 382 440 11,600 -1,500 Descending Tampa TRACON
11:15AM 28.0667 -82.9167 161° South 340 391 10,200 -1,500 Descending Tampa TRACON
11:16AM 27.9833 -82.8667 152° Southeast 304 350 8,600 -1,560 Descending Tampa TRACON
11:18AM 27.9000 -82.8167 152° Southeast 296 341 7,000 -1,200 Descending Tampa TRACON
11:19AM 27.8333 -82.7833 156° South 288 331 6,100 -480 Descending Tampa TRACON
11:19AM 27.7667 -82.7500 156° South 289 333 6,100  Level Tampa TRACON
11:20AM 27.7000 -82.7000 146° Southeast 290 334 6,100 -120 Level Tampa TRACON
11:22AM 27.6167 -82.6667 160° South 290 334 5,900 -780 Descending Tampa TRACON
11:22AM 27.5667 -82.6167 138° Southeast 281 323 4,600 -1,440 Descending Tampa TRACON
11:23AM 27.5167 -82.5500 130° Southeast 284 327 3,200 -780 Descending Tampa TRACON
11:24AM 27.4500 -82.4833 138° Southeast 269 310 3,100 -540 Descending Tampa TRACON
11:25AM 27.4167 -82.4500 138° Southeast 244 281 2,200 -840 Descending Tampa TRACON
11:26AM 27.3667 -82.4833 211° Southwest 163 188 1,500 -660 Descending Tampa TRACON
11:27AM 27.3500 -82.5167 241° Southwest 131 151 900 -600 Descending Tampa TRACON
11:28AM 27.3833 -82.5333 336° Northwest 116 133 300 -600 Descending Tampa TRACON
11:30AM 27.3833 -82.5500 318° Northwest  Level FlightAware Approximate
11:37AM 27.3954 -82.5544 318° Northwest  Level Estimated
11:38AM 27.3954 -82.5544 318° Northwest  Level Estimated